Time;durP1;ratioP1;P1;durP2;ratioP2;P2;SDS_P1;SDS_P2;PMS_P1;PMS_P2;Temp;Humidity;BMP_temperature;BMP_pressure;BME280_temperature;BME280_humidity;BME280_pressure;Samples;Min_cycle;Max_cycle;Signal;HPM_P1;HPM_P2
2022/03/08 00:00:40;;;;;;;7.80;3.60;;;1.80;98.60;;;;;;4936781;29;20201;-74
2022/03/08 00:03:07;;;;;;;7.30;2.80;;;1.80;98.70;;;;;;4936747;29;20212;-74
2022/03/08 00:05:34;;;;;;;6.67;3.53;;;1.90;98.70;;;;;;4936302;29;20235;-70
2022/03/08 00:08:02;;;;;;;8.17;3.50;;;1.90;98.60;;;;;;4936163;29;20196;-74
2022/03/08 00:10:30;;;;;;;5.93;3.40;;;1.80;98.50;;;;;;4935565;29;20577;-74
2022/03/08 00:12:57;;;;;;;6.13;3.00;;;1.60;98.60;;;;;;4936698;29;20240;-74
2022/03/08 00:15:26;;;;;;;5.30;2.97;;;1.50;98.90;;;;;;4936183;29;20595;-74
2022/03/08 00:17:54;;;;;;;5.43;3.23;;;1.40;99.10;;;;;;4936718;29;20213;-74
2022/03/08 00:20:21;;;;;;;5.70;3.70;;;1.40;99.20;;;;;;4936596;29;20594;-74
2022/03/08 00:22:49;;;;;;;5.80;3.23;;;1.50;99.20;;;;;;4936902;29;20213;-70
2022/03/08 00:25:16;;;;;;;5.37;3.27;;;1.50;99.20;;;;;;4936506;29;20228;-74
2022/03/08 00:27:47;;;;;;;4.73;3.10;;;1.50;99.20;;;;;;4936800;29;20297;-75
2022/03/08 00:30:15;;;;;;;7.07;3.33;;;1.70;99.20;;;;;;4935983;29;21017;-75
2022/03/08 00:32:42;;;;;;;4.70;3.17;;;1.70;99.10;;;;;;4935133;29;20232;-72
2022/03/08 00:35:10;;;;;;;8.33;3.00;;;1.80;99.10;;;;;;4936388;29;20270;-71
2022/03/08 00:37:37;;;;;;;6.83;3.53;;;1.80;99.20;;;;;;4936553;29;20204;-73
2022/03/08 00:40:05;;;;;;;6.50;3.53;;;1.80;99.20;;;;;;4936222;29;20208;-72
2022/03/08 00:42:31;;;;;;;12.77;3.77;;;1.70;99.20;;;;;;4936570;29;20205;-74
2022/03/08 00:45:00;;;;;;;6.93;3.33;;;1.60;99.40;;;;;;4935656;29;20601;-70
2022/03/08 00:47:27;;;;;;;6.50;3.63;;;1.50;99.50;;;;;;4935436;29;20215;-74
2022/03/08 00:49:54;;;;;;;4.47;2.57;;;1.30;99.80;;;;;;4936200;29;20231;-70
2022/03/08 00:52:21;;;;;;;4.97;3.03;;;1.40;99.90;;;;;;4936502;29;20219;-70
2022/03/08 00:54:48;;;;;;;4.20;2.67;;;1.30;99.90;;;;;;4936024;29;20252;-70
2022/03/08 00:57:14;;;;;;;5.43;2.83;;;1.30;99.90;;;;;;4935428;29;20207;-74
2022/03/08 00:59:41;;;;;;;4.50;2.60;;;1.20;99.90;;;;;;4935800;29;20209;-72
2022/03/08 01:02:09;;;;;;;5.70;3.07;;;1.20;99.90;;;;;;4935622;29;20663;-71
2022/03/08 01:04:36;;;;;;;5.27;2.50;;;1.20;99.90;;;;;;4936191;29;20236;-72
2022/03/08 01:07:03;;;;;;;4.03;2.47;;;1.10;99.90;;;;;;4936391;29;20295;-70
2022/03/08 01:09:30;;;;;;;3.73;2.83;;;1.00;99.90;;;;;;4935761;29;20213;-70
2022/03/08 01:11:57;;;;;;;7.23;3.60;;;0.90;99.90;;;;;;4936216;29;20223;-71
2022/03/08 01:14:24;;;;;;;5.23;3.27;;;0.90;99.90;;;;;;4935825;29;20577;-74
2022/03/08 01:16:51;;;;;;;5.27;2.93;;;0.80;99.90;;;;;;4936064;29;20213;-74
2022/03/08 01:19:20;;;;;;;5.43;3.17;;;0.90;99.90;;;;;;4936038;29;20219;-74
2022/03/08 01:21:46;;;;;;;6.33;2.93;;;0.80;99.90;;;;;;4936144;29;20220;-74
2022/03/08 01:24:13;;;;;;;7.80;2.90;;;0.90;99.90;;;;;;4935553;29;20225;-74
2022/03/08 01:26:40;;;;;;;10.13;3.23;;;0.90;99.90;;;;;;4935474;29;20209;-72
2022/03/08 01:29:07;;;;;;;6.57;2.80;;;0.90;99.90;;;;;;4935459;29;20205;-74
2022/03/08 01:31:35;;;;;;;7.47;2.73;;;0.90;99.90;;;;;;4934798;29;20219;-70
2022/03/08 01:34:03;;;;;;;5.07;2.80;;;0.80;99.90;;;;;;4935429;29;20247;-73
2022/03/08 01:36:31;;;;;;;5.63;3.27;;;0.80;99.90;;;;;;4935223;29;20220;-70
2022/03/08 01:38:58;;;;;;;3.33;2.50;;;0.90;99.90;;;;;;4934604;29;20209;-72
2022/03/08 01:41:25;;;;;;;7.37;2.80;;;0.90;99.90;;;;;;4935648;29;20219;-71
2022/03/08 01:43:52;;;;;;;4.47;2.73;;;0.80;99.90;;;;;;4935218;29;20235;-74
2022/03/08 01:46:18;;;;;;;6.07;2.97;;;1.00;99.90;;;;;;4935464;29;20208;-73
2022/03/08 01:48:45;;;;;;;6.60;3.30;;;1.00;99.90;;;;;;4935184;29;20223;-74
2022/03/08 01:51:14;;;;;;;6.93;3.20;;;1.00;99.90;;;;;;4935180;29;20216;-74
2022/03/08 01:53:42;;;;;;;8.00;2.63;;;1.10;99.90;;;;;;4935140;29;20608;-72
2022/03/08 01:56:10;;;;;;;9.50;3.03;;;1.10;99.90;;;;;;4935353;29;20221;-73
2022/03/08 01:58:37;;;;;;;4.80;2.60;;;1.00;99.90;;;;;;4934335;29;20657;-74
2022/03/08 02:01:04;;;;;;;6.70;2.77;;;0.90;99.90;;;;;;4934801;29;20200;-71
2022/03/08 02:03:31;;;;;;;5.70;3.10;;;0.90;99.90;;;;;;4934627;29;20568;-72
2022/03/08 02:05:58;;;;;;;4.57;2.80;;;0.90;99.90;;;;;;4934234;29;20212;-70
2022/03/08 02:08:26;;;;;;;5.67;2.97;;;1.00;99.90;;;;;;4933988;29;20675;-73
2022/03/08 02:10:54;;;;;;;5.13;3.00;;;1.10;99.90;;;;;;4933960;29;20219;-73
2022/03/08 02:13:21;;;;;;;6.43;2.97;;;1.20;99.90;;;;;;4933533;29;20239;-73
2022/03/08 02:15:49;;;;;;;6.97;2.80;;;1.00;99.80;;;;;;4934141;29;20244;-70
2022/03/08 02:18:17;;;;;;;7.37;3.17;;;0.90;99.80;;;;;;4934389;29;20225;-74
2022/03/08 02:20:44;;;;;;;5.57;2.73;;;0.90;99.90;;;;;;4934521;29;20205;-71
2022/03/08 02:23:13;;;;;;;5.23;2.90;;;0.80;99.90;;;;;;4934905;29;20220;-72
2022/03/08 02:25:40;;;;;;;5.27;2.67;;;0.80;99.90;;;;;;4934856;29;20243;-72
2022/03/08 02:28:07;;;;;;;5.67;3.00;;;0.70;99.90;;;;;;4934632;29;20564;-72
2022/03/08 02:30:34;;;;;;;5.10;2.93;;;0.80;99.90;;;;;;4934349;29;20208;-73
2022/03/08 02:33:00;;;;;;;10.70;3.87;;;0.80;99.90;;;;;;4933720;29;20219;-70
2022/03/08 02:35:29;;;;;;;8.30;2.90;;;0.70;99.90;;;;;;4934531;29;20233;-70
2022/03/08 02:37:58;;;;;;;4.93;2.47;;;0.70;99.90;;;;;;4934726;29;20208;-73
2022/03/08 02:40:28;;;;;;;6.60;2.90;;;0.70;99.90;;;;;;4934705;29;20220;-73
2022/03/08 02:42:55;;;;;;;6.63;3.00;;;0.70;99.90;;;;;;4934518;29;20209;-73
2022/03/08 02:45:22;;;;;;;5.90;2.80;;;0.70;99.90;;;;;;4933785;29;20584;-74
2022/03/08 02:47:50;;;;;;;4.67;2.80;;;0.80;99.90;;;;;;4933847;29;20209;-70
2022/03/08 02:50:17;;;;;;;7.57;3.13;;;1.00;99.90;;;;;;4933831;29;20209;-72
2022/03/08 02:52:46;;;;;;;7.70;3.83;;;1.10;99.90;;;;;;4934321;29;20216;-71
2022/03/08 02:55:14;;;;;;;5.90;2.87;;;1.20;99.90;;;;;;4935126;29;20729;-70
2022/03/08 02:57:43;;;;;;;5.87;3.33;;;1.30;99.90;;;;;;4929451;29;20201;-72
2022/03/08 03:00:12;;;;;;;6.60;3.13;;;1.20;99.90;;;;;;4937871;29;20208;-74
2022/03/08 03:02:39;;;;;;;7.83;3.03;;;1.00;99.90;;;;;;4938360;29;20209;-74
2022/03/08 03:05:07;;;;;;;6.23;2.90;;;0.80;99.90;;;;;;4937975;29;20232;-73
2022/03/08 03:07:34;;;;;;;6.10;2.97;;;0.80;99.90;;;;;;4938285;29;20690;-71
2022/03/08 03:10:01;;;;;;;4.77;2.60;;;0.60;99.90;;;;;;4938395;29;20219;-70
2022/03/08 03:12:28;;;;;;;3.53;2.63;;;0.40;99.90;;;;;;4938453;29;20201;-72
2022/03/08 03:14:56;;;;;;;6.73;3.03;;;0.30;99.90;;;;;;4937177;29;20719;-74
2022/03/08 03:17:24;;;;;;;4.17;2.33;;;0.20;99.90;;;;;;4938019;29;20220;-74
2022/03/08 03:19:51;;;;;;;4.90;2.87;;;0.20;99.90;;;;;;4938058;29;20221;-72
2022/03/08 03:22:17;;;;;;;5.00;3.23;;;0.10;99.90;;;;;;4937969;29;20212;-71
2022/03/08 03:24:44;;;;;;;4.13;2.90;;;0.10;99.90;;;;;;4937708;29;20233;-74
2022/03/08 03:27:11;;;;;;;4.30;2.60;;;0.10;99.90;;;;;;4937594;29;20656;-72
2022/03/08 03:29:38;;;;;;;5.07;2.93;;;0.20;99.90;;;;;;4937283;29;20209;-71
2022/03/08 03:32:07;;;;;;;4.07;2.20;;;0.20;99.90;;;;;;4937124;29;20223;-71
2022/03/08 03:34:34;;;;;;;5.93;3.07;;;0.20;99.90;;;;;;4937587;29;20241;-73
2022/03/08 03:37:01;;;;;;;4.00;2.70;;;0.20;99.90;;;;;;4937802;29;20216;-72
2022/03/08 03:39:27;;;;;;;4.20;2.80;;;0.20;99.90;;;;;;4937318;29;20243;-71
2022/03/08 03:41:54;;;;;;;5.30;3.17;;;0.20;99.90;;;;;;4937077;29;20209;-73
2022/03/08 03:44:21;;;;;;;7.53;2.77;;;0.30;99.90;;;;;;4937201;29;20243;-70
2022/03/08 03:46:48;;;;;;;5.57;3.30;;;0.40;99.90;;;;;;4937274;29;20217;-71
2022/03/08 03:49:16;;;;;;;5.73;3.03;;;0.50;99.90;;;;;;4937538;29;20200;-73
2022/03/08 03:51:43;;;;;;;4.00;2.57;;;0.60;99.90;;;;;;4937054;29;20213;-74
2022/03/08 03:54:10;;;;;;;5.03;2.70;;;0.60;99.90;;;;;;4936285;29;20585;-73
2022/03/08 03:56:37;;;;;;;4.40;2.37;;;0.60;99.90;;;;;;4936914;29;20264;-70
2022/03/08 03:59:04;;;;;;;6.10;3.10;;;0.50;99.90;;;;;;4936483;29;20212;-74
2022/03/08 04:01:30;;;;;;;6.57;3.10;;;0.40;99.90;;;;;;4937154;29;20722;-71
2022/03/08 04:03:57;;;;;;;6.67;2.83;;;0.30;99.90;;;;;;4937061;29;20323;-73
2022/03/08 04:06:26;;;;;;;5.87;2.77;;;0.30;99.90;;;;;;4937127;29;20213;-72
2022/03/08 04:08:52;;;;;;;5.53;2.67;;;0.20;99.90;;;;;;4936902;29;20691;-70
2022/03/08 04:11:19;;;;;;;5.27;2.97;;;0.30;99.90;;;;;;4937420;29;20209;-70
2022/03/08 04:13:46;;;;;;;6.80;3.40;;;0.40;99.90;;;;;;4936128;29;20201;-73
2022/03/08 04:16:13;;;;;;;4.50;2.50;;;0.40;99.90;;;;;;4936792;29;20208;-74
2022/03/08 04:18:40;;;;;;;9.50;2.90;;;0.40;99.90;;;;;;4937043;29;20209;-74
2022/03/08 04:21:06;;;;;;;6.37;3.37;;;0.50;99.90;;;;;;4936739;29;20216;-72
2022/03/08 04:23:35;;;;;;;7.73;3.70;;;0.60;99.90;;;;;;4936913;29;20205;-73
2022/03/08 04:26:01;;;;;;;6.80;3.03;;;0.40;99.90;;;;;;4936490;29;20216;-72
2022/03/08 04:28:28;;;;;;;6.23;3.20;;;0.20;99.90;;;;;;4936979;29;20219;-72
2022/03/08 04:30:55;;;;;;;4.77;2.93;;;0.00;99.90;;;;;;4936780;29;20209;-70
2022/03/08 04:33:22;;;;;;;6.67;3.57;;;-0.20;99.90;;;;;;4935982;29;20255;-70
2022/03/08 04:35:49;;;;;;;5.27;2.83;;;-0.10;99.90;;;;;;4936796;29;20244;-74
2022/03/08 04:38:15;;;;;;;5.83;3.23;;;0.00;99.90;;;;;;4936515;29;20691;-73
2022/03/08 04:40:44;;;;;;;5.90;3.33;;;0.00;99.90;;;;;;4936498;29;20215;-70
2022/03/08 04:43:11;;;;;;;9.23;3.43;;;0.00;99.90;;;;;;4936462;29;20209;-73
2022/03/08 04:45:37;;;;;;;5.33;3.00;;;0.00;99.90;;;;;;4936808;29;20319;-73
2022/03/08 04:48:05;;;;;;;3.93;2.40;;;0.00;99.90;;;;;;4935933;29;20644;-72
2022/03/08 04:50:32;;;;;;;5.50;3.43;;;-0.10;99.90;;;;;;4936250;29;20201;-74
2022/03/08 04:52:58;;;;;;;5.93;3.10;;;0.00;99.90;;;;;;4936110;29;20212;-73
2022/03/08 04:55:25;;;;;;;4.37;2.83;;;0.00;99.90;;;;;;4936025;29;20723;-71
2022/03/08 04:57:53;;;;;;;6.03;2.60;;;0.00;99.90;;;;;;4936141;29;20322;-70
2022/03/08 05:00:20;;;;;;;11.37;3.00;;;-0.10;99.90;;;;;;4936482;29;20209;-72
2022/03/08 05:02:47;;;;;;;6.10;3.10;;;-0.10;99.90;;;;;;4936192;29;20212;-73
2022/03/08 05:05:15;;;;;;;8.13;3.17;;;-0.10;99.90;;;;;;4935827;29;20274;-70
2022/03/08 05:07:42;;;;;;;5.87;3.10;;;-0.10;99.90;;;;;;4935674;29;20212;-72
2022/03/08 05:10:11;;;;;;;4.03;2.70;;;-0.10;99.90;;;;;;4916934;29;20634;-73
2022/03/08 05:12:39;;;;;;;5.27;2.90;;;-0.10;99.90;;;;;;4917062;29;20214;-73
2022/03/08 05:15:08;;;;;;;6.60;3.07;;;-0.20;99.90;;;;;;4916724;29;20244;-73
2022/03/08 05:17:35;;;;;;;6.57;3.27;;;-0.20;99.90;;;;;;4916373;29;20224;-70
2022/03/08 05:20:04;;;;;;;6.47;2.83;;;-0.10;99.90;;;;;;4916227;29;20216;-70
2022/03/08 05:22:30;;;;;;;5.93;2.80;;;-0.20;99.90;;;;;;4916688;29;20216;-72
2022/03/08 05:24:57;;;;;;;5.87;3.17;;;-0.20;99.90;;;;;;4916567;29;20233;-72
2022/03/08 05:27:24;;;;;;;4.93;2.87;;;-0.30;99.90;;;;;;4919438;29;20231;-72
2022/03/08 05:29:51;;;;;;;5.83;3.07;;;-0.50;99.90;;;;;;4935536;29;20209;-72
2022/03/08 05:32:19;;;;;;;5.37;2.70;;;-0.60;99.90;;;;;;4934294;29;20609;-72
2022/03/08 05:34:46;;;;;;;12.67;3.30;;;-0.60;99.90;;;;;;4935598;29;20688;-73
2022/03/08 05:37:14;;;;;;;3.50;2.33;;;-0.50;99.90;;;;;;4935400;29;20205;-73
2022/03/08 05:39:41;;;;;;;5.57;2.80;;;-0.50;99.90;;;;;;4935816;29;20209;-74
2022/03/08 05:42:08;;;;;;;8.90;2.80;;;-0.50;99.90;;;;;;4935434;29;20213;-70
2022/03/08 05:44:35;;;;;;;4.63;2.93;;;-0.50;99.90;;;;;;4935636;29;20229;-73
2022/03/08 05:47:02;;;;;;;6.70;3.60;;;-0.50;99.90;;;;;;4935656;29;20209;-73
2022/03/08 05:49:30;;;;;;;8.07;3.10;;;-0.50;99.90;;;;;;4934783;29;20675;-72
2022/03/08 05:51:57;;;;;;;5.30;2.97;;;-0.50;99.90;;;;;;4934470;29;20215;-71
2022/03/08 05:54:23;;;;;;;6.73;3.53;;;-0.60;99.90;;;;;;4934925;29;20246;-71
2022/03/08 05:56:50;;;;;;;5.23;3.27;;;-0.60;99.90;;;;;;4935029;29;20575;-72
2022/03/08 05:59:17;;;;;;;5.53;3.17;;;-0.50;99.90;;;;;;4935538;29;20200;-70
2022/03/08 06:01:44;;;;;;;7.40;3.30;;;-0.60;99.90;;;;;;4934277;29;20205;-73
2022/03/08 06:04:11;;;;;;;5.73;2.97;;;-0.60;99.90;;;;;;4934952;29;20243;-73
2022/03/08 06:06:39;;;;;;;6.13;3.13;;;-0.60;99.90;;;;;;4935033;29;20212;-72
2022/03/08 06:09:06;;;;;;;14.13;3.93;;;-0.60;99.90;;;;;;4935091;29;20679;-73
2022/03/08 06:11:33;;;;;;;5.57;3.13;;;-0.60;99.90;;;;;;4934715;29;20227;-73
2022/03/08 06:14:00;;;;;;;7.30;4.43;;;-0.50;99.90;;;;;;4934529;29;20229;-73
2022/03/08 06:16:27;;;;;;;8.03;4.03;;;-0.40;99.90;;;;;;4934624;29;20236;-72
2022/03/08 06:18:56;;;;;;;6.40;2.93;;;-0.40;99.90;;;;;;4934919;29;20204;-69
2022/03/08 06:21:23;;;;;;;6.47;3.50;;;-0.50;99.90;;;;;;4934831;29;20220;-71
2022/03/08 06:23:51;;;;;;;5.17;2.83;;;-0.40;99.90;;;;;;4934477;29;20213;-69
2022/03/08 06:26:18;;;;;;;5.07;3.10;;;-0.40;99.90;;;;;;4934612;29;20553;-69
2022/03/08 06:28:45;;;;;;;7.80;3.10;;;-0.50;99.90;;;;;;4934372;29;20216;-70
2022/03/08 06:31:11;;;;;;;9.43;3.13;;;-0.50;99.90;;;;;;4933756;29;20231;-69
2022/03/08 06:33:38;;;;;;;4.70;2.77;;;-0.40;99.90;;;;;;4934383;29;20208;-72
2022/03/08 06:36:05;;;;;;;10.27;3.90;;;-0.40;99.90;;;;;;4934923;29;20243;-72
2022/03/08 06:38:32;;;;;;;5.47;3.43;;;-0.30;99.90;;;;;;4934565;29;20213;-70
2022/03/08 06:41:01;;;;;;;7.20;3.13;;;-0.10;99.90;;;;;;4934365;29;20208;-69
2022/03/08 06:43:27;;;;;;;8.53;3.60;;;0.30;99.90;;;;;;4934424;29;20219;-72
2022/03/08 06:45:55;;;;;;;6.17;3.20;;;0.80;99.90;;;;;;4933602;29;20235;-71
2022/03/08 06:48:22;;;;;;;7.60;3.90;;;1.50;99.90;;;;;;4933386;29;20565;-69
2022/03/08 06:50:48;;;;;;;5.93;4.33;;;2.00;99.90;;;;;;4933933;29;20204;-71
2022/03/08 06:53:15;;;;;;;6.90;3.70;;;2.70;99.90;;;;;;4933317;29;20212;-72
2022/03/08 06:55:42;;;;;;;6.00;3.70;;;3.50;99.90;;;;;;4932949;29;20236;-70
2022/03/08 06:58:10;;;;;;;5.23;3.13;;;4.30;99.90;;;;;;4933771;29;20686;-72
2022/03/08 07:00:37;;;;;;;7.03;3.37;;;4.90;99.90;;;;;;4934877;29;20204;-69
2022/03/08 07:03:04;;;;;;;7.47;3.13;;;5.30;99.60;;;;;;4934494;29;20205;-72
2022/03/08 07:05:32;;;;;;;7.13;3.43;;;5.90;99.00;;;;;;4932778;29;20240;-72
2022/03/08 07:07:58;;;;;;;6.17;3.00;;;6.40;98.20;;;;;;4932320;29;20211;-70
2022/03/08 07:10:25;;;;;;;5.60;2.93;;;7.00;96.70;;;;;;4932520;29;20200;-73
2022/03/08 07:12:52;;;;;;;4.33;2.60;;;7.30;96.10;;;;;;4931058;29;20669;-70
2022/03/08 07:15:22;;;;;;;5.43;2.97;;;7.80;95.60;;;;;;4932111;29;20232;-74
2022/03/08 07:17:49;;;;;;;3.93;2.50;;;8.40;94.40;;;;;;4934447;29;20224;-70
2022/03/08 07:20:17;;;;;;;7.53;2.80;;;8.90;93.20;;;;;;4934967;29;20205;-70
2022/03/08 07:22:44;;;;;;;4.33;2.77;;;8.90;92.30;;;;;;4934412;29;20208;-70
2022/03/08 07:25:11;;;;;;;3.53;2.73;;;8.50;91.70;;;;;;4934608;29;20232;-69
2022/03/08 07:27:39;;;;;;;6.97;2.83;;;7.40;92.20;;;;;;4934468;29;20209;-73
2022/03/08 07:30:08;;;;;;;7.57;3.67;;;7.50;92.80;;;;;;4934779;29;20209;-69
2022/03/08 07:32:37;;;;;;;8.40;3.83;;;7.30;92.80;;;;;;4931711;29;20209;-70
2022/03/08 07:35:04;;;;;;;8.83;3.10;;;7.60;92.20;;;;;;4934996;29;20243;-72
2022/03/08 07:37:35;;;;;;;6.70;2.83;;;7.50;91.90;;;;;;4933372;29;20290;-70
2022/03/08 07:40:03;;;;;;;5.57;2.70;;;7.70;92.30;;;;;;4933588;29;20260;-70
2022/03/08 07:42:30;;;;;;;5.43;2.43;;;8.20;91.90;;;;;;4937538;29;20209;-73
2022/03/08 07:44:57;;;;;;;5.73;2.70;;;8.30;91.50;;;;;;4937934;29;20239;-73
2022/03/08 07:47:24;;;;;;;5.87;3.13;;;8.90;90.80;;;;;;4937035;29;20291;-71
2022/03/08 07:49:52;;;;;;;12.67;2.90;;;8.70;90.50;;;;;;4937522;29;20216;-72
2022/03/08 07:52:19;;;;;;;7.47;2.70;;;8.30;90.90;;;;;;4938255;29;20284;-70
2022/03/08 07:54:46;;;;;;;5.23;3.10;;;8.20;90.30;;;;;;4938324;29;20228;-70
2022/03/08 07:57:13;;;;;;;4.57;2.57;;;7.60;91.20;;;;;;4938378;29;20216;-73
2022/03/08 07:59:40;;;;;;;4.03;2.53;;;8.10;91.00;;;;;;4937797;29;20208;-70
2022/03/08 08:02:07;;;;;;;7.20;3.17;;;8.00;90.30;;;;;;4937101;29;20561;-70
2022/03/08 08:04:34;;;;;;;5.07;2.83;;;7.80;90.90;;;;;;4937595;29;20224;-74
2022/03/08 08:07:02;;;;;;;3.93;2.50;;;8.10;90.60;;;;;;4938423;29;20213;-74
2022/03/08 08:09:29;;;;;;;6.83;3.00;;;8.20;90.40;;;;;;4937559;29;20298;-73
2022/03/08 08:11:56;;;;;;;6.20;2.77;;;8.20;90.00;;;;;;4937575;29;20284;-70
2022/03/08 08:14:23;;;;;;;5.33;3.00;;;8.20;90.30;;;;;;4938186;29;20303;-70
2022/03/08 08:16:49;;;;;;;5.83;2.57;;;8.70;90.40;;;;;;4938506;29;20247;-74
2022/03/08 08:19:16;;;;;;;5.37;2.80;;;8.50;89.00;;;;;;4938543;29;20219;-74
2022/03/08 08:21:43;;;;;;;6.80;3.03;;;8.30;89.80;;;;;;4938219;29;20654;-72
2022/03/08 08:24:11;;;;;;;6.80;3.67;;;8.10;90.30;;;;;;4936440;29;20811;-70
2022/03/08 08:26:38;;;;;;;6.40;3.27;;;8.00;90.30;;;;;;4937874;29;20209;-73
2022/03/08 08:29:05;;;;;;;3.53;2.33;;;7.70;90.20;;;;;;4938031;29;20211;-73
2022/03/08 08:31:32;;;;;;;4.40;2.90;;;7.20;90.30;;;;;;4937072;29;20201;-73
2022/03/08 08:33:59;;;;;;;3.53;2.30;;;6.90;89.50;;;;;;4937227;29;20260;-74
2022/03/08 08:36:26;;;;;;;5.10;3.07;;;7.10;90.30;;;;;;4938075;29;20233;-73
2022/03/08 08:38:53;;;;;;;4.43;2.53;;;6.90;90.10;;;;;;4937632;29;20215;-74
2022/03/08 08:41:21;;;;;;;4.30;2.80;;;6.40;90.60;;;;;;4937834;29;20226;-69
2022/03/08 08:43:48;;;;;;;5.27;2.80;;;6.70;90.70;;;;;;4937425;29;20208;-70
2022/03/08 08:46:15;;;;;;;4.17;2.37;;;7.00;90.60;;;;;;4937386;29;20213;-72
2022/03/08 08:48:42;;;;;;;4.47;2.70;;;7.00;90.10;;;;;;4937540;29;20212;-73
2022/03/08 08:51:09;;;;;;;4.50;2.67;;;7.10;90.40;;;;;;4936931;29;20212;-74
2022/03/08 08:53:36;;;;;;;6.70;3.57;;;7.20;90.00;;;;;;4934400;29;20216;-74
2022/03/08 08:56:03;;;;;;;4.27;2.73;;;7.30;88.90;;;;;;4920119;29;20237;-73
2022/03/08 08:58:31;;;;;;;3.97;2.33;;;7.30;89.70;;;;;;4922012;29;20208;-72
2022/03/08 09:00:57;;;;;;;4.23;2.50;;;7.30;89.00;;;;;;4937523;29;20219;-74
2022/03/08 09:03:24;;;;;;;4.23;2.00;;;7.10;88.50;;;;;;4935678;29;20204;-73
2022/03/08 09:05:51;;;;;;;5.63;2.60;;;6.90;88.70;;;;;;4933956;29;20233;-70
2022/03/08 09:08:23;;;;;;;6.90;3.03;;;7.10;89.40;;;;;;4931744;29;20216;-70
2022/03/08 09:10:50;;;;;;;9.33;4.23;;;7.10;88.40;;;;;;4935275;29;20217;-72
2022/03/08 09:13:17;;;;;;;6.90;3.47;;;6.80;87.50;;;;;;4937227;29;20205;-72
2022/03/08 09:15:45;;;;;;;6.20;3.00;;;6.50;87.90;;;;;;4936873;29;20239;-71
2022/03/08 09:18:12;;;;;;;6.33;2.87;;;6.60;88.80;;;;;;4935769;29;20217;-72
2022/03/08 09:20:39;;;;;;;4.53;2.47;;;6.50;89.10;;;;;;4936584;29;20216;-70
2022/03/08 09:23:07;;;;;;;3.77;2.23;;;6.30;88.70;;;;;;4936354;29;20245;-70
2022/03/08 09:25:33;;;;;;;4.17;2.43;;;6.00;88.70;;;;;;4936539;29;20235;-70
2022/03/08 09:28:02;;;;;;;5.50;2.60;;;5.90;89.90;;;;;;4936280;29;20209;-70
2022/03/08 09:30:29;;;;;;;3.37;2.40;;;5.80;90.60;;;;;;4937100;29;20208;-71
2022/03/08 09:32:58;;;;;;;3.80;2.20;;;6.00;90.30;;;;;;4936528;29;20695;-71
2022/03/08 09:35:25;;;;;;;2.77;2.07;;;5.90;90.40;;;;;;4936709;29;20260;-71
2022/03/08 09:37:52;;;;;;;4.03;2.20;;;5.90;89.10;;;;;;4936310;29;20213;-73
2022/03/08 09:40:19;;;;;;;3.67;2.13;;;5.70;90.00;;;;;;4936493;29;20212;-71
2022/03/08 09:42:46;;;;;;;3.90;2.07;;;5.70;90.20;;;;;;4936533;29;20216;-71
2022/03/08 09:45:14;;;;;;;4.67;2.40;;;5.80;90.30;;;;;;4936722;29;20240;-70
2022/03/08 09:47:41;;;;;;;3.57;2.30;;;6.00;90.20;;;;;;4936698;29;20235;-72
2022/03/08 09:50:12;;;;;;;4.10;2.50;;;5.70;90.40;;;;;;4936495;29;20216;-72
2022/03/08 09:52:41;;;;;;;4.77;2.37;;;6.00;90.40;;;;;;4935921;29;20235;-70
2022/03/08 09:55:12;;;;;;;7.47;2.60;;;5.90;90.40;;;;;;4935984;29;20229;-71
2022/03/08 09:57:39;;;;;;;4.13;2.30;;;6.00;90.70;;;;;;4935568;29;20243;-70
2022/03/08 10:00:08;;;;;;;3.83;2.13;;;6.00;90.80;;;;;;4936394;29;20223;-71
2022/03/08 10:02:46;;;;;;;4.03;2.60;;;6.10;90.90;;;;;;4935748;29;20727;-71
2022/03/08 10:05:14;;;;;;;5.60;2.40;;;5.90;90.40;;;;;;4935696;29;20296;-71
2022/03/08 10:08:21;;;;;;;6.90;2.97;;;5.90;90.70;;;;;;4935515;29;20665;-72
2022/03/08 10:10:51;;;;;;;4.33;2.73;;;5.80;90.90;;;;;;4935790;29;20683;-73
2022/03/08 10:13:20;;;;;;;5.20;2.80;;;5.90;90.80;;;;;;4935931;29;20204;-72
2022/03/08 10:15:46;;;;;;;6.27;2.70;;;5.90;90.90;;;;;;4936067;29;20237;-72
2022/03/08 10:18:13;;;;;;;10.93;4.47;;;5.90;91.00;;;;;;4935751;29;20217;-70
2022/03/08 10:20:42;;;;;;;5.13;2.50;;;6.00;91.50;;;;;;4935937;29;20215;-70
2022/03/08 10:23:13;;;;;;;5.07;2.77;;;6.00;91.10;;;;;;4935426;29;20204;-73
2022/03/08 10:25:42;;;;;;;8.60;4.10;;;6.10;91.20;;;;;;4935937;29;20284;-72
2022/03/08 10:28:09;;;;;;;4.13;2.10;;;6.20;91.20;;;;;;4935875;29;20208;-74
2022/03/08 10:30:52;;;;;;;4.30;2.50;;;6.40;91.00;;;;;;4935968;29;20318;-71
2022/03/08 10:33:22;;;;;;;4.93;2.17;;;6.40;90.70;;;;;;4935566;29;20691;-74
2022/03/08 10:35:53;;;;;;;3.27;1.63;;;6.30;90.50;;;;;;4935659;29;20236;-71
2022/03/08 10:38:20;;;;;;;4.83;2.30;;;6.40;90.50;;;;;;4935733;29;20256;-71
2022/03/08 10:40:47;;;;;;;6.23;2.37;;;6.50;90.70;;;;;;4935250;29;20209;-70
2022/03/08 10:43:15;;;;;;;3.63;2.30;;;6.70;90.70;;;;;;4935512;29;20568;-73
2022/03/08 10:45:44;;;;;;;4.20;2.10;;;6.80;90.40;;;;;;4934844;29;20758;-72
2022/03/08 10:48:14;;;;;;;3.63;2.07;;;7.10;90.30;;;;;;4935430;29;20209;-71
2022/03/08 10:50:43;;;;;;;5.90;2.20;;;7.10;89.70;;;;;;4935273;29;20209;-73
2022/03/08 10:53:13;;;;;;;3.77;2.27;;;7.20;90.10;;;;;;4935246;29;20213;-72
2022/03/08 10:55:46;;;;;;;5.27;2.20;;;7.40;90.30;;;;;;4935285;29;20700;-73
2022/03/08 10:58:15;;;;;;;4.33;2.23;;;7.60;90.00;;;;;;4935545;29;20656;-70
2022/03/08 11:00:44;;;;;;;3.80;2.03;;;7.80;88.40;;;;;;4935836;29;20268;-70
2022/03/08 11:03:12;;;;;;;2.63;1.80;;;7.80;84.10;;;;;;4935669;29;20209;-70
2022/03/08 11:05:42;;;;;;;3.30;1.97;;;7.80;83.50;;;;;;4935485;29;20229;-71
2022/03/08 11:08:11;;;;;;;4.57;1.90;;;8.00;81.20;;;;;;4935250;29;20660;-71
2022/03/08 11:10:39;;;;;;;5.73;2.10;;;7.90;79.80;;;;;;4935580;29;20231;-71
2022/03/08 11:13:07;;;;;;;3.43;1.90;;;8.00;80.90;;;;;;4935446;29;20212;-71
2022/03/08 11:15:36;;;;;;;11.63;5.07;;;8.20;79.90;;;;;;4935364;29;20704;-70
2022/03/08 11:18:05;;;;;;;3.33;2.20;;;8.00;78.70;;;;;;4939026;29;20240;-70
2022/03/08 11:20:34;;;;;;;3.93;1.90;;;8.10;80.80;;;;;;4939268;29;20303;-70
2022/03/08 11:23:01;;;;;;;4.27;2.17;;;8.20;79.20;;;;;;4939129;29;20209;-71
2022/03/08 11:25:31;;;;;;;4.37;1.93;;;8.20;76.80;;;;;;4938787;29;20244;-71
2022/03/08 11:27:58;;;;;;;4.37;2.30;;;8.30;76.70;;;;;;4939330;29;20215;-70
2022/03/08 11:30:27;;;;;;;2.80;1.80;;;8.30;78.30;;;;;;4939131;29;20216;-70
2022/03/08 11:33:03;;;;;;;4.37;1.97;;;8.40;77.10;;;;;;4939113;29;20232;-70
2022/03/08 11:35:34;;;;;;;3.33;1.77;;;8.40;76.40;;;;;;4938427;29;20239;-70
2022/03/08 11:38:02;;;;;;;3.87;2.03;;;8.40;76.50;;;;;;4938489;29;20241;-72
2022/03/08 11:40:33;;;;;;;4.23;2.27;;;8.60;76.50;;;;;;4934509;29;20558;-73
2022/03/08 11:43:04;;;;;;;8.93;4.37;;;8.70;76.00;;;;;;4938044;29;20212;-71
2022/03/08 11:45:32;;;;;;;5.03;2.63;;;8.80;77.40;;;;;;4938255;29;20323;-72
2022/03/08 11:48:00;;;;;;;5.30;2.23;;;8.70;75.00;;;;;;4938294;29;20205;-71
2022/03/08 11:50:29;;;;;;;2.53;1.60;;;8.70;75.40;;;;;;4938381;29;20220;-70
2022/03/08 11:53:12;;;;;;;5.13;1.70;;;8.70;74.70;;;;;;4938002;29;20685;-69
2022/03/08 11:55:48;;;;;;;7.83;3.43;;;8.60;73.70;;;;;;4938025;29;20251;-69
2022/03/08 11:58:18;;;;;;;4.50;2.23;;;8.60;74.30;;;;;;4937729;29;20233;-68
2022/03/08 12:00:48;;;;;;;4.37;2.27;;;8.60;74.10;;;;;;4939311;29;20208;-69
2022/03/08 12:03:18;;;;;;;3.77;1.77;;;8.80;75.40;;;;;;4937701;29;20205;-69
2022/03/08 12:05:56;;;;;;;3.53;1.90;;;8.90;74.70;;;;;;4938057;29;20235;-69
2022/03/08 12:08:43;;;;;;;4.77;2.13;;;8.90;73.40;;;;;;4938291;29;20626;-69
2022/03/08 12:11:29;;;;;;;4.77;2.07;;;8.90;73.50;;;;;;4937862;29;20212;-69
2022/03/08 12:14:02;;;;;;;3.43;2.00;;;9.00;74.00;;;;;;4936446;29;20236;-68
2022/03/08 12:16:29;;;;;;;3.33;1.60;;;9.00;73.50;;;;;;4931048;29;20239;-69
2022/03/08 12:18:58;;;;;;;3.93;2.27;;;9.20;75.30;;;;;;4925264;29;20728;-69
2022/03/08 12:21:36;;;;;;;3.60;2.10;;;9.30;74.40;;;;;;4918708;29;20236;-69
2022/03/08 12:24:05;;;;;;;4.97;2.40;;;9.40;73.10;;;;;;4929082;29;20285;-71
2022/03/08 12:26:36;;;;;;;2.90;1.83;;;9.40;72.90;;;;;;4936224;29;20241;-71
2022/03/08 12:29:05;;;;;;;4.30;1.80;;;9.20;72.00;;;;;;4934738;29;20215;-69
2022/03/08 12:31:31;;;;;;;3.73;1.70;;;9.00;73.60;;;;;;4937395;29;20207;-71
2022/03/08 12:34:01;;;;;;;3.43;1.83;;;9.00;72.70;;;;;;4936567;29;20221;-72
2022/03/08 12:36:29;;;;;;;5.83;2.00;;;9.20;74.20;;;;;;4937567;29;20217;-69
2022/03/08 12:38:56;;;;;;;3.20;1.90;;;9.30;74.20;;;;;;4937443;29;20215;-73
2022/03/08 12:41:25;;;;;;;3.90;2.43;;;9.40;75.20;;;;;;4927955;29;20216;-69
2022/03/08 12:44:02;;;;;;;3.63;1.70;;;9.60;74.30;;;;;;4935278;29;20746;-69
2022/03/08 12:46:29;;;;;;;3.40;1.80;;;9.70;74.40;;;;;;4936578;29;20216;-72
2022/03/08 12:48:56;;;;;;;3.60;1.80;;;9.70;72.10;;;;;;4935884;29;20216;-73
2022/03/08 12:51:24;;;;;;;3.17;1.77;;;9.50;71.40;;;;;;4936106;29;20289;-71
2022/03/08 12:53:56;;;;;;;3.57;1.80;;;9.60;71.90;;;;;;4936231;29;20204;-72
2022/03/08 12:56:26;;;;;;;2.90;1.70;;;9.60;71.80;;;;;;4936261;29;20304;-71
2022/03/08 12:59:04;;;;;;;3.00;1.87;;;9.60;71.60;;;;;;4936639;29;20312;-72